sensor_id;sensor_type;location;lat;lon;timestamp;P1;durP1;ratioP1;P2;durP2;ratioP2
63807;SDS011;49961;43.970;22.868;2023-03-31T00:00:42;12.80;;;8.57;;
63807;SDS011;49961;43.970;22.868;2023-03-31T00:01:43;14.63;;;7.60;;
63807;SDS011;49961;43.970;22.868;2023-03-31T00:02:43;9.13;;;6.20;;
63807;SDS011;49961;43.970;22.868;2023-03-31T00:03:45;9.47;;;6.03;;
63807;SDS011;49961;43.970;22.868;2023-03-31T00:04:45;9.10;;;5.40;;
63807;SDS011;49961;43.970;22.868;2023-03-31T00:05:57;9.03;;;5.73;;
63807;SDS011;49961;43.970;22.868;2023-03-31T00:06:59;8.93;;;5.27;;
63807;SDS011;49961;43.970;22.868;2023-03-31T00:07:59;8.10;;;5.57;;
63807;SDS011;49961;43.970;22.868;2023-03-31T00:09:00;10.37;;;5.83;;
63807;SDS011;49961;43.970;22.868;2023-03-31T00:10:00;8.90;;;5.63;;
63807;SDS011;49961;43.970;22.868;2023-03-31T00:11:02;8.13;;;5.63;;
63807;SDS011;49961;43.970;22.868;2023-03-31T00:12:04;9.67;;;5.80;;
63807;SDS011;49961;43.970;22.868;2023-03-31T00:13:05;7.17;;;5.20;;
63807;SDS011;49961;43.970;22.868;2023-03-31T00:14:05;7.63;;;5.43;;
63807;SDS011;49961;43.970;22.868;2023-03-31T00:15:06;9.83;;;6.00;;
63807;SDS011;49961;43.970;22.868;2023-03-31T00:16:08;10.23;;;5.97;;
63807;SDS011;49961;43.970;22.868;2023-03-31T00:17:09;9.57;;;5.50;;
63807;SDS011;49961;43.970;22.868;2023-03-31T00:18:10;10.87;;;5.50;;
63807;SDS011;49961;43.970;22.868;2023-03-31T00:19:11;9.67;;;5.50;;
63807;SDS011;49961;43.970;22.868;2023-03-31T00:20:19;6.73;;;5.40;;
63807;SDS011;49961;43.970;22.868;2023-03-31T00:21:21;7.63;;;5.30;;
63807;SDS011;49961;43.970;22.868;2023-03-31T00:22:24;8.00;;;5.27;;
63807;SDS011;49961;43.970;22.868;2023-03-31T00:23:26;9.83;;;5.30;;
63807;SDS011;49961;43.970;22.868;2023-03-31T00:24:30;8.97;;;5.40;;
63807;SDS011;49961;43.970;22.868;2023-03-31T00:25:31;10.03;;;5.60;;
63807;SDS011;49961;43.970;22.868;2023-03-31T00:26:32;11.43;;;5.90;;
63807;SDS011;49961;43.970;22.868;2023-03-31T00:27:33;10.70;;;5.80;;
63807;SDS011;49961;43.970;22.868;2023-03-31T00:28:34;9.60;;;5.80;;
63807;SDS011;49961;43.970;22.868;2023-03-31T00:29:35;9.00;;;6.13;;
63807;SDS011;49961;43.970;22.868;2023-03-31T00:30:35;9.00;;;6.13;;
63807;SDS011;49961;43.970;22.868;2023-03-31T00:31:35;10.00;;;5.90;;
63807;SDS011;49961;43.970;22.868;2023-03-31T00:32:37;9.37;;;5.90;;
63807;SDS011;49961;43.970;22.868;2023-03-31T00:33:38;9.37;;;6.80;;
63807;SDS011;49961;43.970;22.868;2023-03-31T00:34:38;9.43;;;6.53;;
63807;SDS011;49961;43.970;22.868;2023-03-31T00:35:39;9.53;;;6.20;;
63807;SDS011;49961;43.970;22.868;2023-03-31T00:36:40;8.47;;;6.03;;
63807;SDS011;49961;43.970;22.868;2023-03-31T00:37:46;9.37;;;6.40;;
63807;SDS011;49961;43.970;22.868;2023-03-31T00:38:47;9.73;;;6.37;;
63807;SDS011;49961;43.970;22.868;2023-03-31T00:39:48;9.00;;;6.63;;
63807;SDS011;49961;43.970;22.868;2023-03-31T00:40:48;10.23;;;6.47;;
63807;SDS011;49961;43.970;22.868;2023-03-31T00:41:49;11.93;;;6.50;;
63807;SDS011;49961;43.970;22.868;2023-03-31T00:42:49;8.93;;;6.40;;
63807;SDS011;49961;43.970;22.868;2023-03-31T00:46:19;8.47;;;5.60;;
63807;SDS011;49961;43.970;22.868;2023-03-31T00:47:26;9.23;;;5.80;;
63807;SDS011;49961;43.970;22.868;2023-03-31T00:48:28;8.87;;;5.53;;
63807;SDS011;49961;43.970;22.868;2023-03-31T00:49:37;8.33;;;4.80;;
63807;SDS011;49961;43.970;22.868;2023-03-31T00:50:44;8.73;;;5.43;;
63807;SDS011;49961;43.970;22.868;2023-03-31T00:51:50;10.40;;;5.43;;
63807;SDS011;49961;43.970;22.868;2023-03-31T00:52:56;7.03;;;5.10;;
63807;SDS011;49961;43.970;22.868;2023-03-31T00:54:02;13.23;;;5.90;;
63807;SDS011;49961;43.970;22.868;2023-03-31T00:55:08;12.20;;;6.07;;
63807;SDS011;49961;43.970;22.868;2023-03-31T00:56:12;10.03;;;5.97;;
63807;SDS011;49961;43.970;22.868;2023-03-31T00:57:15;9.13;;;5.97;;
63807;SDS011;49961;43.970;22.868;2023-03-31T00:58:15;10.33;;;6.23;;
63807;SDS011;49961;43.970;22.868;2023-03-31T00:59:23;8.93;;;5.93;;
63807;SDS011;49961;43.970;22.868;2023-03-31T01:00:26;7.83;;;5.77;;
63807;SDS011;49961;43.970;22.868;2023-03-31T01:01:29;8.37;;;5.70;;
63807;SDS011;49961;43.970;22.868;2023-03-31T01:02:30;8.27;;;5.67;;
63807;SDS011;49961;43.970;22.868;2023-03-31T01:03:30;9.43;;;5.70;;
63807;SDS011;49961;43.970;22.868;2023-03-31T01:04:34;7.53;;;5.47;;
63807;SDS011;49961;43.970;22.868;2023-03-31T01:05:42;9.77;;;5.57;;
63807;SDS011;49961;43.970;22.868;2023-03-31T01:06:54;7.40;;;5.43;;
63807;SDS011;49961;43.970;22.868;2023-03-31T01:07:59;6.17;;;5.13;;
63807;SDS011;49961;43.970;22.868;2023-03-31T01:09:01;8.97;;;5.50;;
63807;SDS011;49961;43.970;22.868;2023-03-31T01:10:05;8.70;;;5.90;;
63807;SDS011;49961;43.970;22.868;2023-03-31T01:11:08;9.10;;;6.07;;
63807;SDS011;49961;43.970;22.868;2023-03-31T01:12:11;7.80;;;5.70;;
63807;SDS011;49961;43.970;22.868;2023-03-31T01:13:13;8.73;;;5.33;;
63807;SDS011;49961;43.970;22.868;2023-03-31T01:14:15;6.93;;;5.63;;
63807;SDS011;49961;43.970;22.868;2023-03-31T01:15:15;9.33;;;6.27;;
63807;SDS011;49961;43.970;22.868;2023-03-31T01:16:17;10.13;;;6.10;;
63807;SDS011;49961;43.970;22.868;2023-03-31T01:17:17;10.43;;;6.20;;
63807;SDS011;49961;43.970;22.868;2023-03-31T01:18:20;8.17;;;5.63;;
63807;SDS011;49961;43.970;22.868;2023-03-31T01:19:28;10.83;;;6.30;;
63807;SDS011;49961;43.970;22.868;2023-03-31T01:20:50;7.77;;;5.50;;
63807;SDS011;49961;43.970;22.868;2023-03-31T01:22:34;8.43;;;5.87;;
63807;SDS011;49961;43.970;22.868;2023-03-31T01:39:00;8.53;;;5.87;;
63807;SDS011;49961;43.970;22.868;2023-03-31T01:40:38;9.00;;;6.30;;
63807;SDS011;49961;43.970;22.868;2023-03-31T01:44:19;10.77;;;6.13;;
63807;SDS011;49961;43.970;22.868;2023-03-31T01:45:29;9.47;;;5.90;;
63807;SDS011;49961;43.970;22.868;2023-03-31T01:46:34;10.17;;;6.50;;
63807;SDS011;49961;43.970;22.868;2023-03-31T01:47:44;8.70;;;6.50;;
63807;SDS011;49961;43.970;22.868;2023-03-31T01:50:07;11.80;;;6.27;;
63807;SDS011;49961;43.970;22.868;2023-03-31T01:54:06;8.20;;;6.43;;
63807;SDS011;49961;43.970;22.868;2023-03-31T01:56:05;10.60;;;6.30;;
63807;SDS011;49961;43.970;22.868;2023-03-31T01:57:13;11.13;;;6.10;;
63807;SDS011;49961;43.970;22.868;2023-03-31T01:58:19;11.07;;;6.60;;
63807;SDS011;49961;43.970;22.868;2023-03-31T01:59:26;12.23;;;6.33;;
63807;SDS011;49961;43.970;22.868;2023-03-31T02:00:36;8.43;;;6.07;;
63807;SDS011;49961;43.970;22.868;2023-03-31T02:02:45;10.67;;;6.13;;
63807;SDS011;49961;43.970;22.868;2023-03-31T02:03:56;9.47;;;6.17;;
63807;SDS011;49961;43.970;22.868;2023-03-31T02:05:01;8.77;;;5.67;;
63807;SDS011;49961;43.970;22.868;2023-03-31T02:06:13;10.20;;;6.17;;
63807;SDS011;49961;43.970;22.868;2023-03-31T02:07:22;11.33;;;5.77;;
63807;SDS011;49961;43.970;22.868;2023-03-31T02:08:31;8.60;;;6.00;;
63807;SDS011;49961;43.970;22.868;2023-03-31T02:09:37;7.23;;;5.90;;
63807;SDS011;49961;43.970;22.868;2023-03-31T02:10:43;9.07;;;6.57;;
63807;SDS011;49961;43.970;22.868;2023-03-31T02:11:45;9.10;;;6.53;;
63807;SDS011;49961;43.970;22.868;2023-03-31T02:12:48;9.03;;;5.37;;
63807;SDS011;49961;43.970;22.868;2023-03-31T02:13:50;10.63;;;6.13;;
63807;SDS011;49961;43.970;22.868;2023-03-31T02:14:54;10.03;;;6.00;;
63807;SDS011;49961;43.970;22.868;2023-03-31T02:15:59;9.00;;;5.83;;
63807;SDS011;49961;43.970;22.868;2023-03-31T02:17:04;7.37;;;5.60;;
63807;SDS011;49961;43.970;22.868;2023-03-31T02:18:08;9.43;;;5.80;;
63807;SDS011;49961;43.970;22.868;2023-03-31T02:19:13;9.17;;;6.00;;
63807;SDS011;49961;43.970;22.868;2023-03-31T02:20:18;7.70;;;5.87;;
63807;SDS011;49961;43.970;22.868;2023-03-31T02:21:20;13.67;;;6.40;;
63807;SDS011;49961;43.970;22.868;2023-03-31T02:22:21;8.47;;;6.03;;
63807;SDS011;49961;43.970;22.868;2023-03-31T02:23:23;10.50;;;6.17;;
63807;SDS011;49961;43.970;22.868;2023-03-31T02:24:30;10.07;;;5.93;;
63807;SDS011;49961;43.970;22.868;2023-03-31T02:25:37;10.97;;;6.60;;
63807;SDS011;49961;43.970;22.868;2023-03-31T02:26:52;11.90;;;5.90;;
63807;SDS011;49961;43.970;22.868;2023-03-31T02:27:59;10.73;;;6.70;;
63807;SDS011;49961;43.970;22.868;2023-03-31T02:29:05;9.57;;;6.17;;
63807;SDS011;49961;43.970;22.868;2023-03-31T02:30:06;10.47;;;6.53;;
63807;SDS011;49961;43.970;22.868;2023-03-31T02:33:40;13.37;;;6.50;;
63807;SDS011;49961;43.970;22.868;2023-03-31T02:34:41;13.00;;;6.43;;
63807;SDS011;49961;43.970;22.868;2023-03-31T02:35:41;10.87;;;7.13;;
63807;SDS011;49961;43.970;22.868;2023-03-31T02:36:42;11.20;;;6.90;;
63807;SDS011;49961;43.970;22.868;2023-03-31T02:37:47;9.17;;;6.53;;
63807;SDS011;49961;43.970;22.868;2023-03-31T02:40:30;9.43;;;6.90;;
63807;SDS011;49961;43.970;22.868;2023-03-31T02:41:30;9.07;;;6.33;;
63807;SDS011;49961;43.970;22.868;2023-03-31T02:42:31;8.30;;;6.30;;
63807;SDS011;49961;43.970;22.868;2023-03-31T02:43:32;12.33;;;6.63;;
63807;SDS011;49961;43.970;22.868;2023-03-31T02:44:36;9.73;;;7.00;;
63807;SDS011;49961;43.970;22.868;2023-03-31T02:46:46;12.87;;;7.20;;
63807;SDS011;49961;43.970;22.868;2023-03-31T02:47:47;8.87;;;6.80;;
63807;SDS011;49961;43.970;22.868;2023-03-31T02:48:49;10.93;;;7.03;;
63807;SDS011;49961;43.970;22.868;2023-03-31T02:49:55;9.67;;;7.00;;
63807;SDS011;49961;43.970;22.868;2023-03-31T02:51:03;9.60;;;7.00;;
63807;SDS011;49961;43.970;22.868;2023-03-31T02:54:58;10.33;;;7.43;;
63807;SDS011;49961;43.970;22.868;2023-03-31T02:58:59;9.53;;;6.93;;
63807;SDS011;49961;43.970;22.868;2023-03-31T03:04:42;10.87;;;7.07;;
63807;SDS011;49961;43.970;22.868;2023-03-31T03:09:15;11.23;;;7.03;;
63807;SDS011;49961;43.970;22.868;2023-03-31T03:15:25;8.73;;;6.60;;
63807;SDS011;49961;43.970;22.868;2023-03-31T03:16:32;11.93;;;6.47;;
63807;SDS011;49961;43.970;22.868;2023-03-31T03:17:42;9.07;;;6.60;;
63807;SDS011;49961;43.970;22.868;2023-03-31T03:18:58;7.67;;;6.47;;
63807;SDS011;49961;43.970;22.868;2023-03-31T03:20:00;10.27;;;6.43;;
63807;SDS011;49961;43.970;22.868;2023-03-31T03:21:07;8.87;;;6.53;;
63807;SDS011;49961;43.970;22.868;2023-03-31T03:22:07;7.27;;;6.10;;
63807;SDS011;49961;43.970;22.868;2023-03-31T03:23:08;9.40;;;6.10;;
63807;SDS011;49961;43.970;22.868;2023-03-31T03:24:08;9.97;;;5.83;;
63807;SDS011;49961;43.970;22.868;2023-03-31T03:25:10;6.30;;;5.27;;
63807;SDS011;49961;43.970;22.868;2023-03-31T03:26:12;9.57;;;5.77;;
63807;SDS011;49961;43.970;22.868;2023-03-31T03:27:13;8.53;;;6.23;;
63807;SDS011;49961;43.970;22.868;2023-03-31T03:28:14;8.57;;;6.27;;
63807;SDS011;49961;43.970;22.868;2023-03-31T03:29:14;9.67;;;6.10;;
63807;SDS011;49961;43.970;22.868;2023-03-31T03:30:15;7.57;;;6.00;;
63807;SDS011;49961;43.970;22.868;2023-03-31T03:31:15;9.27;;;6.10;;
63807;SDS011;49961;43.970;22.868;2023-03-31T03:32:16;7.70;;;6.20;;
63807;SDS011;49961;43.970;22.868;2023-03-31T03:33:17;9.87;;;6.40;;
63807;SDS011;49961;43.970;22.868;2023-03-31T03:34:17;9.77;;;6.40;;
63807;SDS011;49961;43.970;22.868;2023-03-31T03:35:19;6.83;;;5.90;;
63807;SDS011;49961;43.970;22.868;2023-03-31T03:36:19;8.17;;;5.80;;
63807;SDS011;49961;43.970;22.868;2023-03-31T03:37:20;8.90;;;5.70;;
63807;SDS011;49961;43.970;22.868;2023-03-31T03:38:21;11.27;;;6.37;;
63807;SDS011;49961;43.970;22.868;2023-03-31T03:39:21;8.93;;;6.13;;
63807;SDS011;49961;43.970;22.868;2023-03-31T03:40:22;9.60;;;6.57;;
63807;SDS011;49961;43.970;22.868;2023-03-31T03:41:22;10.23;;;6.73;;
63807;SDS011;49961;43.970;22.868;2023-03-31T03:42:23;8.93;;;6.33;;
63807;SDS011;49961;43.970;22.868;2023-03-31T03:43:23;9.40;;;6.67;;
63807;SDS011;49961;43.970;22.868;2023-03-31T03:44:24;11.03;;;6.77;;
63807;SDS011;49961;43.970;22.868;2023-03-31T03:45:24;8.83;;;6.80;;
63807;SDS011;49961;43.970;22.868;2023-03-31T03:46:25;8.70;;;6.43;;
63807;SDS011;49961;43.970;22.868;2023-03-31T03:47:26;7.80;;;6.30;;
63807;SDS011;49961;43.970;22.868;2023-03-31T03:48:27;10.53;;;6.70;;
63807;SDS011;49961;43.970;22.868;2023-03-31T03:49:27;9.87;;;6.30;;
63807;SDS011;49961;43.970;22.868;2023-03-31T03:50:28;8.80;;;6.40;;
63807;SDS011;49961;43.970;22.868;2023-03-31T03:51:28;9.17;;;6.70;;
63807;SDS011;49961;43.970;22.868;2023-03-31T03:52:28;10.17;;;7.10;;
63807;SDS011;49961;43.970;22.868;2023-03-31T03:53:29;9.13;;;6.50;;
63807;SDS011;49961;43.970;22.868;2023-03-31T03:54:29;11.07;;;7.07;;
63807;SDS011;49961;43.970;22.868;2023-03-31T03:55:30;8.73;;;6.57;;
63807;SDS011;49961;43.970;22.868;2023-03-31T03:56:30;9.43;;;6.60;;
63807;SDS011;49961;43.970;22.868;2023-03-31T03:57:31;14.17;;;6.43;;
63807;SDS011;49961;43.970;22.868;2023-03-31T03:58:31;7.97;;;5.47;;
63807;SDS011;49961;43.970;22.868;2023-03-31T03:59:32;10.87;;;5.80;;
63807;SDS011;49961;43.970;22.868;2023-03-31T04:00:32;6.47;;;5.47;;
63807;SDS011;49961;43.970;22.868;2023-03-31T04:01:33;8.10;;;5.40;;
63807;SDS011;49961;43.970;22.868;2023-03-31T04:02:33;8.50;;;6.17;;
63807;SDS011;49961;43.970;22.868;2023-03-31T04:03:34;6.80;;;5.50;;
63807;SDS011;49961;43.970;22.868;2023-03-31T04:04:34;8.40;;;5.40;;
63807;SDS011;49961;43.970;22.868;2023-03-31T04:05:35;9.23;;;5.83;;
63807;SDS011;49961;43.970;22.868;2023-03-31T04:06:36;8.90;;;5.77;;
63807;SDS011;49961;43.970;22.868;2023-03-31T04:07:36;7.53;;;5.50;;
63807;SDS011;49961;43.970;22.868;2023-03-31T04:08:37;7.70;;;5.37;;
63807;SDS011;49961;43.970;22.868;2023-03-31T04:09:37;10.40;;;5.30;;
63807;SDS011;49961;43.970;22.868;2023-03-31T04:10:37;8.73;;;5.60;;
63807;SDS011;49961;43.970;22.868;2023-03-31T04:11:44;8.57;;;5.50;;
63807;SDS011;49961;43.970;22.868;2023-03-31T04:12:44;8.03;;;5.73;;
63807;SDS011;49961;43.970;22.868;2023-03-31T04:13:45;7.83;;;5.77;;
63807;SDS011;49961;43.970;22.868;2023-03-31T04:14:46;7.87;;;5.80;;
63807;SDS011;49961;43.970;22.868;2023-03-31T04:15:46;8.50;;;6.03;;
63807;SDS011;49961;43.970;22.868;2023-03-31T04:16:47;9.17;;;6.30;;
63807;SDS011;49961;43.970;22.868;2023-03-31T04:17:47;9.57;;;6.60;;
63807;SDS011;49961;43.970;22.868;2023-03-31T04:18:52;8.27;;;6.37;;
63807;SDS011;49961;43.970;22.868;2023-03-31T04:20:01;10.33;;;7.37;;
63807;SDS011;49961;43.970;22.868;2023-03-31T04:21:10;9.83;;;7.27;;
63807;SDS011;49961;43.970;22.868;2023-03-31T04:22:14;9.40;;;7.00;;
63807;SDS011;49961;43.970;22.868;2023-03-31T04:23:20;11.53;;;9.50;;
63807;SDS011;49961;43.970;22.868;2023-03-31T04:24:22;11.50;;;7.27;;
63807;SDS011;49961;43.970;22.868;2023-03-31T04:25:29;8.63;;;6.10;;
63807;SDS011;49961;43.970;22.868;2023-03-31T04:26:33;7.03;;;6.10;;
63807;SDS011;49961;43.970;22.868;2023-03-31T04:27:43;9.70;;;6.90;;
63807;SDS011;49961;43.970;22.868;2023-03-31T04:28:53;9.13;;;6.20;;
63807;SDS011;49961;43.970;22.868;2023-03-31T04:29:57;9.37;;;6.03;;
63807;SDS011;49961;43.970;22.868;2023-03-31T04:30:58;7.87;;;5.97;;
63807;SDS011;49961;43.970;22.868;2023-03-31T04:31:58;12.47;;;7.07;;
63807;SDS011;49961;43.970;22.868;2023-03-31T04:33:00;8.57;;;6.57;;
63807;SDS011;49961;43.970;22.868;2023-03-31T04:34:01;12.97;;;7.47;;
63807;SDS011;49961;43.970;22.868;2023-03-31T04:35:05;11.07;;;6.60;;
63807;SDS011;49961;43.970;22.868;2023-03-31T04:36:06;10.90;;;6.77;;
63807;SDS011;49961;43.970;22.868;2023-03-31T04:37:16;13.20;;;8.13;;
63807;SDS011;49961;43.970;22.868;2023-03-31T04:38:25;12.33;;;7.97;;
63807;SDS011;49961;43.970;22.868;2023-03-31T04:39:26;11.73;;;6.00;;
63807;SDS011;49961;43.970;22.868;2023-03-31T04:40:29;7.50;;;5.20;;
63807;SDS011;49961;43.970;22.868;2023-03-31T04:41:30;12.80;;;5.50;;
63807;SDS011;49961;43.970;22.868;2023-03-31T04:42:30;12.10;;;5.67;;
63807;SDS011;49961;43.970;22.868;2023-03-31T04:43:30;10.13;;;5.50;;
63807;SDS011;49961;43.970;22.868;2023-03-31T04:44:31;12.83;;;6.47;;
63807;SDS011;49961;43.970;22.868;2023-03-31T04:45:31;11.50;;;6.00;;
63807;SDS011;49961;43.970;22.868;2023-03-31T04:46:32;10.07;;;4.63;;
63807;SDS011;49961;43.970;22.868;2023-03-31T04:47:34;13.10;;;5.83;;
63807;SDS011;49961;43.970;22.868;2023-03-31T04:48:34;11.30;;;5.60;;
63807;SDS011;49961;43.970;22.868;2023-03-31T04:49:35;9.23;;;4.77;;
63807;SDS011;49961;43.970;22.868;2023-03-31T04:50:36;10.57;;;5.70;;
63807;SDS011;49961;43.970;22.868;2023-03-31T04:51:37;10.03;;;6.20;;
63807;SDS011;49961;43.970;22.868;2023-03-31T04:52:37;14.57;;;8.67;;
63807;SDS011;49961;43.970;22.868;2023-03-31T04:53:38;11.03;;;6.73;;
63807;SDS011;49961;43.970;22.868;2023-03-31T04:54:39;7.63;;;4.67;;
63807;SDS011;49961;43.970;22.868;2023-03-31T04:55:40;10.20;;;4.57;;
63807;SDS011;49961;43.970;22.868;2023-03-31T04:56:41;12.00;;;4.00;;
63807;SDS011;49961;43.970;22.868;2023-03-31T04:57:41;7.77;;;4.47;;
63807;SDS011;49961;43.970;22.868;2023-03-31T04:58:42;6.37;;;3.80;;
63807;SDS011;49961;43.970;22.868;2023-03-31T04:59:43;11.53;;;4.40;;
63807;SDS011;49961;43.970;22.868;2023-03-31T05:00:44;12.80;;;6.27;;
63807;SDS011;49961;43.970;22.868;2023-03-31T05:01:44;10.47;;;4.83;;
63807;SDS011;49961;43.970;22.868;2023-03-31T05:02:44;11.30;;;4.70;;
63807;SDS011;49961;43.970;22.868;2023-03-31T05:03:45;6.27;;;4.23;;
63807;SDS011;49961;43.970;22.868;2023-03-31T05:04:46;8.70;;;4.23;;
63807;SDS011;49961;43.970;22.868;2023-03-31T05:05:47;8.53;;;3.73;;
63807;SDS011;49961;43.970;22.868;2023-03-31T05:06:47;9.67;;;4.30;;
63807;SDS011;49961;43.970;22.868;2023-03-31T05:07:48;7.27;;;4.50;;
63807;SDS011;49961;43.970;22.868;2023-03-31T05:08:48;6.50;;;3.57;;
63807;SDS011;49961;43.970;22.868;2023-03-31T05:09:49;8.13;;;3.50;;
63807;SDS011;49961;43.970;22.868;2023-03-31T05:10:49;6.87;;;3.43;;
63807;SDS011;49961;43.970;22.868;2023-03-31T05:11:49;5.67;;;3.40;;
63807;SDS011;49961;43.970;22.868;2023-03-31T05:12:50;7.20;;;3.80;;
63807;SDS011;49961;43.970;22.868;2023-03-31T05:13:51;6.77;;;3.33;;
63807;SDS011;49961;43.970;22.868;2023-03-31T05:14:52;5.20;;;2.97;;
63807;SDS011;49961;43.970;22.868;2023-03-31T05:15:52;6.60;;;3.30;;
63807;SDS011;49961;43.970;22.868;2023-03-31T05:16:54;5.37;;;3.13;;
63807;SDS011;49961;43.970;22.868;2023-03-31T05:17:56;9.00;;;3.27;;
63807;SDS011;49961;43.970;22.868;2023-03-31T05:18:58;6.17;;;3.30;;
63807;SDS011;49961;43.970;22.868;2023-03-31T05:19:58;5.33;;;3.00;;
63807;SDS011;49961;43.970;22.868;2023-03-31T05:21:09;7.53;;;3.10;;
63807;SDS011;49961;43.970;22.868;2023-03-31T05:22:17;5.53;;;2.80;;
63807;SDS011;49961;43.970;22.868;2023-03-31T05:23:19;4.13;;;2.03;;
63807;SDS011;49961;43.970;22.868;2023-03-31T05:24:20;5.40;;;2.70;;
63807;SDS011;49961;43.970;22.868;2023-03-31T05:25:20;6.33;;;2.80;;
63807;SDS011;49961;43.970;22.868;2023-03-31T05:26:21;5.67;;;2.30;;
63807;SDS011;49961;43.970;22.868;2023-03-31T05:27:24;5.50;;;2.30;;
63807;SDS011;49961;43.970;22.868;2023-03-31T05:28:24;6.73;;;2.47;;
63807;SDS011;49961;43.970;22.868;2023-03-31T05:29:24;6.80;;;2.13;;
63807;SDS011;49961;43.970;22.868;2023-03-31T05:30:26;4.80;;;2.10;;
63807;SDS011;49961;43.970;22.868;2023-03-31T05:31:27;5.37;;;2.37;;
63807;SDS011;49961;43.970;22.868;2023-03-31T05:32:28;4.97;;;2.50;;
63807;SDS011;49961;43.970;22.868;2023-03-31T05:33:28;5.07;;;2.60;;
63807;SDS011;49961;43.970;22.868;2023-03-31T05:34:29;5.70;;;2.33;;
63807;SDS011;49961;43.970;22.868;2023-03-31T05:35:30;6.10;;;2.30;;
63807;SDS011;49961;43.970;22.868;2023-03-31T05:36:30;4.77;;;2.23;;
63807;SDS011;49961;43.970;22.868;2023-03-31T05:37:31;3.63;;;2.00;;
63807;SDS011;49961;43.970;22.868;2023-03-31T05:38:31;6.30;;;2.33;;
63807;SDS011;49961;43.970;22.868;2023-03-31T05:39:33;6.23;;;2.67;;
63807;SDS011;49961;43.970;22.868;2023-03-31T05:40:34;4.27;;;2.30;;
63807;SDS011;49961;43.970;22.868;2023-03-31T05:41:34;5.40;;;2.50;;
63807;SDS011;49961;43.970;22.868;2023-03-31T05:42:35;5.20;;;2.57;;
63807;SDS011;49961;43.970;22.868;2023-03-31T05:43:36;4.87;;;2.70;;
63807;SDS011;49961;43.970;22.868;2023-03-31T05:44:38;7.93;;;2.63;;
63807;SDS011;49961;43.970;22.868;2023-03-31T05:45:38;7.60;;;2.90;;
63807;SDS011;49961;43.970;22.868;2023-03-31T05:46:39;4.73;;;2.73;;
63807;SDS011;49961;43.970;22.868;2023-03-31T05:47:40;5.43;;;2.73;;
63807;SDS011;49961;43.970;22.868;2023-03-31T05:48:40;6.13;;;2.97;;
63807;SDS011;49961;43.970;22.868;2023-03-31T05:49:41;5.13;;;2.60;;
63807;SDS011;49961;43.970;22.868;2023-03-31T05:50:41;6.40;;;3.23;;
63807;SDS011;49961;43.970;22.868;2023-03-31T05:51:43;6.93;;;3.17;;
63807;SDS011;49961;43.970;22.868;2023-03-31T05:52:43;6.90;;;2.80;;
63807;SDS011;49961;43.970;22.868;2023-03-31T05:53:43;7.10;;;2.93;;
63807;SDS011;49961;43.970;22.868;2023-03-31T05:54:44;6.17;;;2.80;;
63807;SDS011;49961;43.970;22.868;2023-03-31T05:55:45;6.60;;;3.03;;
63807;SDS011;49961;43.970;22.868;2023-03-31T05:56:45;5.10;;;2.50;;
63807;SDS011;49961;43.970;22.868;2023-03-31T05:57:46;4.93;;;2.43;;
63807;SDS011;49961;43.970;22.868;2023-03-31T05:58:46;4.80;;;3.00;;
63807;SDS011;49961;43.970;22.868;2023-03-31T05:59:46;6.60;;;3.03;;
63807;SDS011;49961;43.970;22.868;2023-03-31T06:00:47;7.00;;;3.33;;
63807;SDS011;49961;43.970;22.868;2023-03-31T06:01:47;7.20;;;2.80;;
63807;SDS011;49961;43.970;22.868;2023-03-31T06:02:48;5.47;;;3.10;;
63807;SDS011;49961;43.970;22.868;2023-03-31T06:03:48;6.87;;;2.90;;
63807;SDS011;49961;43.970;22.868;2023-03-31T06:04:49;4.17;;;2.77;;
63807;SDS011;49961;43.970;22.868;2023-03-31T06:05:51;5.73;;;2.93;;
63807;SDS011;49961;43.970;22.868;2023-03-31T06:06:53;5.93;;;2.73;;
63807;SDS011;49961;43.970;22.868;2023-03-31T06:07:54;7.57;;;3.03;;
63807;SDS011;49961;43.970;22.868;2023-03-31T06:08:55;7.57;;;3.07;;
63807;SDS011;49961;43.970;22.868;2023-03-31T06:09:56;5.40;;;2.90;;
63807;SDS011;49961;43.970;22.868;2023-03-31T06:10:56;5.30;;;2.87;;
63807;SDS011;49961;43.970;22.868;2023-03-31T06:11:57;6.20;;;2.93;;
63807;SDS011;49961;43.970;22.868;2023-03-31T06:12:57;7.03;;;2.90;;
63807;SDS011;49961;43.970;22.868;2023-03-31T06:13:58;5.13;;;2.93;;
63807;SDS011;49961;43.970;22.868;2023-03-31T06:14:58;5.70;;;2.77;;
63807;SDS011;49961;43.970;22.868;2023-03-31T06:15:59;4.17;;;2.63;;
63807;SDS011;49961;43.970;22.868;2023-03-31T06:17:00;5.57;;;3.00;;
63807;SDS011;49961;43.970;22.868;2023-03-31T06:18:00;8.00;;;3.17;;
63807;SDS011;49961;43.970;22.868;2023-03-31T06:19:01;6.13;;;3.37;;
63807;SDS011;49961;43.970;22.868;2023-03-31T06:20:01;6.53;;;3.10;;
63807;SDS011;49961;43.970;22.868;2023-03-31T06:21:04;6.87;;;3.30;;
63807;SDS011;49961;43.970;22.868;2023-03-31T06:22:05;5.07;;;2.90;;
63807;SDS011;49961;43.970;22.868;2023-03-31T06:23:05;9.17;;;3.07;;
63807;SDS011;49961;43.970;22.868;2023-03-31T06:24:07;7.97;;;3.27;;
63807;SDS011;49961;43.970;22.868;2023-03-31T06:25:08;5.73;;;3.20;;
63807;SDS011;49961;43.970;22.868;2023-03-31T06:26:13;7.73;;;3.40;;
63807;SDS011;49961;43.970;22.868;2023-03-31T06:27:14;6.10;;;3.27;;
63807;SDS011;49961;43.970;22.868;2023-03-31T06:28:15;7.87;;;3.80;;
63807;SDS011;49961;43.970;22.868;2023-03-31T06:29:15;7.47;;;4.00;;
63807;SDS011;49961;43.970;22.868;2023-03-31T06:30:16;9.70;;;3.87;;
63807;SDS011;49961;43.970;22.868;2023-03-31T06:31:17;8.50;;;3.83;;
63807;SDS011;49961;43.970;22.868;2023-03-31T06:32:20;10.27;;;4.73;;
63807;SDS011;49961;43.970;22.868;2023-03-31T06:33:20;7.50;;;3.70;;
63807;SDS011;49961;43.970;22.868;2023-03-31T06:34:21;10.67;;;5.23;;
63807;SDS011;49961;43.970;22.868;2023-03-31T06:35:21;6.93;;;3.70;;
63807;SDS011;49961;43.970;22.868;2023-03-31T06:36:21;8.17;;;4.10;;
63807;SDS011;49961;43.970;22.868;2023-03-31T06:37:22;10.07;;;3.70;;
63807;SDS011;49961;43.970;22.868;2023-03-31T06:38:22;10.07;;;3.80;;
63807;SDS011;49961;43.970;22.868;2023-03-31T06:39:23;7.93;;;3.60;;
63807;SDS011;49961;43.970;22.868;2023-03-31T06:40:23;6.80;;;4.03;;
63807;SDS011;49961;43.970;22.868;2023-03-31T06:41:24;8.43;;;4.43;;
63807;SDS011;49961;43.970;22.868;2023-03-31T06:42:25;6.67;;;3.63;;
63807;SDS011;49961;43.970;22.868;2023-03-31T06:43:26;7.33;;;4.10;;
63807;SDS011;49961;43.970;22.868;2023-03-31T06:44:26;6.60;;;3.70;;
63807;SDS011;49961;43.970;22.868;2023-03-31T06:45:26;11.03;;;3.73;;
63807;SDS011;49961;43.970;22.868;2023-03-31T06:46:27;11.60;;;3.70;;
63807;SDS011;49961;43.970;22.868;2023-03-31T06:47:27;8.63;;;3.53;;
63807;SDS011;49961;43.970;22.868;2023-03-31T06:48:28;8.00;;;3.73;;
63807;SDS011;49961;43.970;22.868;2023-03-31T06:49:28;9.63;;;4.53;;
63807;SDS011;49961;43.970;22.868;2023-03-31T06:50:29;10.60;;;3.90;;
63807;SDS011;49961;43.970;22.868;2023-03-31T06:51:29;9.17;;;3.90;;
63807;SDS011;49961;43.970;22.868;2023-03-31T06:52:30;8.53;;;3.10;;
63807;SDS011;49961;43.970;22.868;2023-03-31T06:53:31;8.50;;;2.70;;
63807;SDS011;49961;43.970;22.868;2023-03-31T06:54:32;6.17;;;2.70;;
63807;SDS011;49961;43.970;22.868;2023-03-31T06:55:32;4.57;;;3.17;;
63807;SDS011;49961;43.970;22.868;2023-03-31T06:56:33;8.73;;;3.07;;
63807;SDS011;49961;43.970;22.868;2023-03-31T06:57:33;7.20;;;3.30;;
63807;SDS011;49961;43.970;22.868;2023-03-31T06:58:34;5.43;;;3.10;;
63807;SDS011;49961;43.970;22.868;2023-03-31T06:59:35;5.17;;;2.90;;
63807;SDS011;49961;43.970;22.868;2023-03-31T07:00:35;7.77;;;3.27;;